Time;durP1;ratioP1;P1;durP2;ratioP2;P2;SDS_P1;SDS_P2;PMS_P1;PMS_P2;Temp;Humidity;BMP_temperature;BMP_pressure;BME280_temperature;BME280_humidity;BME280_pressure;Samples;Min_cycle;Max_cycle;Signal;HPM_P1;HPM_P2
2024/03/10 00:00:24;;;;;;;18.05;11.82;;;;;;;;;;6177509;28;20054;-81
2024/03/10 00:03:27;;;;;;;16.05;9.25;;;;;;;;;;6148779;28;20042;-81
2024/03/10 00:06:30;;;;;;;17.42;9.60;;;;;;;;;;6125964;28;20210;-81
2024/03/10 00:09:32;;;;;;;17.38;9.70;;;;;;;;;;6155240;28;20061;-81
2024/03/10 00:12:36;;;;;;;17.00;10.82;;;;;;;;;;6157632;28;20077;-81
2024/03/10 00:15:39;;;;;;;20.55;11.70;;;;;;;;;;6171950;28;20042;-81
2024/03/10 00:18:41;;;;;;;19.67;10.65;;;;;;;;;;6160152;28;20058;-82
2024/03/10 00:21:44;;;;;;;18.17;10.40;;;;;;;;;;6177396;28;20058;-81
2024/03/10 00:24:49;;;;;;;20.48;12.05;;;;;;;;;;6143937;28;20524;-81
2024/03/10 00:27:51;;;;;;;21.95;12.40;;;;;;;;;;6165010;28;20058;-81
2024/03/10 00:30:54;;;;;;;22.33;12.93;;;;;;;;;;6147641;28;20047;-82
2024/03/10 00:33:56;;;;;;;19.27;11.50;;;;;;;;;;6148681;28;20952;-81
2024/03/10 00:36:59;;;;;;;20.95;11.75;;;;;;;;;;6146873;28;20058;-81
2024/03/10 00:40:05;;;;;;;20.83;11.75;;;;;;;;;;6158210;28;20057;-80
2024/03/10 00:43:09;;;;;;;22.25;13.23;;;;;;;;;;6169759;28;20121;-80
2024/03/10 00:46:12;;;;;;;20.67;10.88;;;;;;;;;;6152621;28;20650;-82
2024/03/10 00:49:17;;;;;;;23.15;12.85;;;;;;;;;;6166010;28;20617;-81
2024/03/10 00:52:21;;;;;;;20.48;11.90;;;;;;;;;;6166143;28;20043;-81
2024/03/10 00:55:23;;;;;;;20.52;12.43;;;;;;;;;;6160573;28;20274;-82
2024/03/10 00:58:25;;;;;;;20.65;12.07;;;;;;;;;;6148357;28;20086;-82
2024/03/10 01:01:29;;;;;;;20.30;11.93;;;;;;;;;;6148718;28;20055;-82
2024/03/10 01:04:36;;;;;;;26.63;12.82;;;;;;;;;;6149943;28;20051;-83
2024/03/10 01:07:38;;;;;;;23.30;13.98;;;;;;;;;;6120869;28;20592;-83
2024/03/10 01:10:50;;;;;;;22.55;12.10;;;;;;;;;;6141976;28;20062;-81
2024/03/10 01:13:54;;;;;;;25.83;12.77;;;;;;;;;;6166650;28;20059;-81
2024/03/10 01:16:56;;;;;;;22.60;13.27;;;;;;;;;;6171729;28;20054;-81
2024/03/10 01:20:04;;;;;;;23.55;12.60;;;;;;;;;;6149356;28;20493;-83
2024/03/10 01:23:12;;;;;;;24.65;13.27;;;;;;;;;;6164015;28;20051;-82
2024/03/10 01:26:17;;;;;;;26.88;12.82;;;;;;;;;;6166573;28;20035;-81
2024/03/10 01:29:22;;;;;;;24.48;12.23;;;;;;;;;;6174602;28;20113;-81
2024/03/10 01:32:25;;;;;;;;;;;;;;;;;;6172259;28;20177;-83
2024/03/10 01:35:28;;;;;;;22.42;10.98;;;;;;;;;;6170231;28;19936;-82
2024/03/10 01:38:30;;;;;;;21.45;12.52;;;;;;;;;;6173902;28;20042;-83
2024/03/10 01:41:32;;;;;;;19.95;10.75;;;;;;;;;;6194790;28;20062;-82
2024/03/10 01:44:36;;;;;;;26.45;12.43;;;;;;;;;;6169598;28;20165;-83
2024/03/10 01:47:44;;;;;;;22.92;12.23;;;;;;;;;;6163029;28;20055;-81
2024/03/10 01:50:49;;;;;;;21.77;11.60;;;;;;;;;;6157605;28;20051;-81
2024/03/10 01:53:52;;;;;;;26.85;13.75;;;;;;;;;;6174795;28;20129;-81
2024/03/10 01:56:56;;;;;;;22.52;12.35;;;;;;;;;;6174959;28;20058;-81
2024/03/10 01:59:59;;;;;;;23.00;13.07;;;;;;;;;;6132190;28;20043;-81
2024/03/10 02:03:02;;;;;;;25.90;11.48;;;;;;;;;;6159232;28;20054;-81
2024/03/10 02:06:09;;;;;;;25.55;13.07;;;;;;;;;;6121932;28;20618;-81
2024/03/10 02:09:12;;;;;;;25.33;13.30;;;;;;;;;;6138007;28;20054;-82
2024/03/10 02:12:15;;;;;;;24.02;12.05;;;;;;;;;;6154857;28;20137;-82
2024/03/10 02:15:23;;;;;;;25.08;12.40;;;;;;;;;;6163569;28;20054;-81
2024/03/10 02:18:28;;;;;;;22.45;13.38;;;;;;;;;;6163096;28;20043;-83
2024/03/10 02:21:31;;;;;;;22.30;11.48;;;;;;;;;;6161108;28;20055;-83
2024/03/10 02:24:38;;;;;;;21.83;11.20;;;;;;;;;;6177287;28;20051;-82
2024/03/10 02:27:44;;;;;;;24.33;12.38;;;;;;;;;;6163214;28;20149;-83
2024/03/10 02:30:57;;;;;;;20.83;12.65;;;;;;;;;;6177988;28;20043;-82
2024/03/10 02:47:25;;;;;;;27.75;12.73;;;;;;;;;;6153540;28;20066;-83
2024/03/10 02:50:27;;;;;;;24.10;11.15;;;;;;;;;;6175157;28;20165;-83
2024/03/10 02:53:30;;;;;;;24.65;11.02;;;;;;;;;;6160315;28;20066;-82
2024/03/10 02:56:32;;;;;;;18.60;9.48;;;;;;;;;;6179612;28;20053;-83
2024/03/10 02:59:35;;;;;;;16.98;9.77;;;;;;;;;;6177165;28;20483;-83
2024/03/10 03:02:37;;;;;;;19.67;10.52;;;;;;;;;;6143863;28;20053;-82
2024/03/10 03:05:39;;;;;;;20.02;11.82;;;;;;;;;;6166446;28;20051;-82
2024/03/10 03:08:42;;;;;;;20.90;11.23;;;;;;;;;;6160147;28;20481;-81
2024/03/10 03:11:48;;;;;;;18.25;10.82;;;;;;;;;;6177240;28;20830;-82
2024/03/10 03:14:50;;;;;;;19.67;10.23;;;;;;;;;;6177907;28;20039;-82
2024/03/10 03:17:54;;;;;;;20.65;10.07;;;;;;;;;;6151631;28;20691;-82
2024/03/10 03:20:57;;;;;;;18.33;9.63;;;;;;;;;;6160461;28;20145;-82
2024/03/10 03:23:59;;;;;;;18.92;10.32;;;;;;;;;;6137907;28;20751;-82
2024/03/10 03:27:04;;;;;;;15.45;9.43;;;;;;;;;;6161038;28;20129;-81
2024/03/10 03:30:07;;;;;;;21.20;10.82;;;;;;;;;;6155798;28;20055;-81
2024/03/10 03:33:12;;;;;;;17.30;9.73;;;;;;;;;;6145450;28;20066;-81
2024/03/10 03:36:14;;;;;;;19.27;10.68;;;;;;;;;;6159060;28;20624;-82
2024/03/10 03:39:19;;;;;;;17.83;10.57;;;;;;;;;;6147375;28;20563;-81
2024/03/10 03:42:22;;;;;;;20.13;11.18;;;;;;;;;;6177449;28;20039;-82
2024/03/10 03:45:26;;;;;;;21.38;11.60;;;;;;;;;;6153201;28;20588;-81
2024/03/10 03:48:28;;;;;;;22.30;12.50;;;;;;;;;;6175370;28;20062;-81
2024/03/10 03:51:30;;;;;;;20.38;10.30;;;;;;;;;;6173986;28;20548;-81
2024/03/10 03:54:34;;;;;;;18.58;11.68;;;;;;;;;;6167753;28;20051;-82
2024/03/10 03:57:36;;;;;;;19.00;10.43;;;;;;;;;;6158933;28;20070;-81
2024/03/10 04:00:40;;;;;;;24.52;11.68;;;;;;;;;;6163169;28;20065;-81
2024/03/10 04:03:44;;;;;;;19.65;10.98;;;;;;;;;;6155053;28;20200;-80
2024/03/10 04:06:46;;;;;;;18.70;10.63;;;;;;;;;;6158015;28;20047;-81
2024/03/10 04:09:48;;;;;;;21.40;11.35;;;;;;;;;;6158599;28;20038;-81
2024/03/10 04:12:53;;;;;;;18.65;10.45;;;;;;;;;;6155238;28;20113;-81
2024/03/10 04:15:56;;;;;;;17.10;9.23;;;;;;;;;;6157702;28;20054;-81
2024/03/10 04:18:58;;;;;;;17.10;9.88;;;;;;;;;;6156313;28;20089;-81
2024/03/10 04:22:02;;;;;;;20.27;10.70;;;;;;;;;;6139535;28;20142;-81
2024/03/10 04:25:08;;;;;;;22.38;11.13;;;;;;;;;;6141693;28;20051;-81
2024/03/10 04:28:11;;;;;;;20.55;9.70;;;;;;;;;;6143779;28;20046;-81
2024/03/10 04:31:13;;;;;;;18.42;10.35;;;;;;;;;;6160434;28;20081;-82
2024/03/10 04:34:15;;;;;;;18.85;10.20;;;;;;;;;;6159491;28;20050;-81
2024/03/10 04:37:17;;;;;;;20.58;10.70;;;;;;;;;;6152797;28;20078;-81
2024/03/10 04:40:20;;;;;;;20.10;10.65;;;;;;;;;;6154544;28;20133;-82
2024/03/10 04:43:23;;;;;;;20.33;9.98;;;;;;;;;;6144155;28;20086;-82
2024/03/10 04:46:28;;;;;;;20.02;10.98;;;;;;;;;;6165440;28;20767;-82
2024/03/10 04:49:33;;;;;;;21.50;11.57;;;;;;;;;;6177523;28;20073;-81
2024/03/10 04:52:37;;;;;;;22.45;11.23;;;;;;;;;;6176496;28;20051;-81
2024/03/10 04:55:43;;;;;;;17.23;10.25;;;;;;;;;;6143132;28;20054;-82
2024/03/10 04:58:46;;;;;;;19.73;9.55;;;;;;;;;;6147610;28;20085;-82
2024/03/10 05:01:56;;;;;;;19.75;11.30;;;;;;;;;;6155858;28;20058;-83
2024/03/10 05:04:59;;;;;;;23.85;10.38;;;;;;;;;;6174457;28;20108;-80
2024/03/10 05:08:01;;;;;;;20.85;11.45;;;;;;;;;;6158294;28;20062;-81
2024/03/10 05:11:04;;;;;;;19.15;10.77;;;;;;;;;;6140127;28;20141;-81
2024/03/10 05:14:06;;;;;;;27.98;12.15;;;;;;;;;;6145703;28;20627;-80
2024/03/10 05:17:10;;;;;;;21.33;12.82;;;;;;;;;;6162339;28;20417;-80
2024/03/10 05:20:15;;;;;;;23.77;11.23;;;;;;;;;;6154013;28;20047;-82
2024/03/10 05:23:17;;;;;;;21.70;12.35;;;;;;;;;;6161240;28;20047;-81
2024/03/10 05:26:20;;;;;;;20.70;10.35;;;;;;;;;;6160390;28;20054;-81
2024/03/10 05:29:22;;;;;;;20.60;10.07;;;;;;;;;;6150097;28;20038;-81
2024/03/10 05:32:25;;;;;;;16.70;9.52;;;;;;;;;;6173396;28;20066;-80
2024/03/10 05:35:29;;;;;;;22.58;10.50;;;;;;;;;;6188423;28;20646;-80
2024/03/10 05:38:33;;;;;;;17.02;9.63;;;;;;;;;;6180642;28;20062;-81
2024/03/10 05:41:36;;;;;;;18.52;10.40;;;;;;;;;;6135649;28;20054;-83
2024/03/10 05:44:40;;;;;;;24.48;11.70;;;;;;;;;;6140793;28;20082;-84
2024/03/10 05:47:44;;;;;;;22.55;13.05;;;;;;;;;;6147783;28;20051;-84
2024/03/10 05:50:48;;;;;;;29.92;16.52;;;;;;;;;;6145346;28;20054;-82
2024/03/10 05:53:50;;;;;;;22.00;13.55;;;;;;;;;;6130013;28;20055;-84
2024/03/10 05:56:52;;;;;;;27.10;12.57;;;;;;;;;;6145969;28;20521;-82
2024/03/10 05:59:54;;;;;;;35.70;20.45;;;;;;;;;;6169080;28;20134;-83
2024/03/10 06:02:57;;;;;;;29.75;16.70;;;;;;;;;;6141019;28;20059;-82
2024/03/10 06:06:00;;;;;;;23.65;13.40;;;;;;;;;;6163144;28;20552;-82
2024/03/10 06:09:05;;;;;;;21.00;11.70;;;;;;;;;;6174896;28;20047;-82
2024/03/10 06:16:24;;;;;;;20.08;11.88;;;;;;;;;;6179071;28;20059;-82
2024/03/10 06:26:24;;;;;;;18.90;10.55;;;;;;;;;;6162837;28;20043;-84
2024/03/10 06:29:26;;;;;;;20.95;11.02;;;;;;;;;;6146454;28;20061;-84
2024/03/10 06:32:29;;;;;;;20.05;12.30;;;;;;;;;;6117973;28;20062;-83
2024/03/10 06:35:32;;;;;;;21.60;12.32;;;;;;;;;;6187157;28;20027;-83
2024/03/10 06:38:39;;;;;;;19.70;11.70;;;;;;;;;;6167899;28;20055;-82
2024/03/10 06:41:44;;;;;;;20.10;11.07;;;;;;;;;;6171446;28;20055;-81
2024/03/10 06:44:46;;;;;;;24.58;15.10;;;;;;;;;;6183339;28;20503;-82
2024/03/10 06:47:48;;;;;;;21.05;12.80;;;;;;;;;;6172119;28;20387;-82
2024/03/10 06:50:54;;;;;;;18.58;11.48;;;;;;;;;;6181734;28;20054;-82
2024/03/10 06:54:00;;;;;;;18.27;11.05;;;;;;;;;;6202692;28;20051;-85
2024/03/10 06:57:07;;;;;;;16.83;10.30;;;;;;;;;;6158099;28;20097;-85
2024/03/10 07:00:12;;;;;;;16.55;10.55;;;;;;;;;;6173854;28;20051;-85
2024/03/10 07:03:16;;;;;;;18.13;10.88;;;;;;;;;;6186810;28;20091;-83
2024/03/10 07:06:21;;;;;;;20.52;11.77;;;;;;;;;;6179238;28;20050;-83
2024/03/10 07:09:25;;;;;;;18.88;11.52;;;;;;;;;;6146641;28;20054;-85
2024/03/10 07:12:30;;;;;;;18.70;10.95;;;;;;;;;;6135137;28;20053;-83
2024/03/10 07:15:33;;;;;;;20.10;11.60;;;;;;;;;;6165241;28;20050;-85
2024/03/10 07:18:37;;;;;;;27.38;16.95;;;;;;;;;;6164360;28;20085;-83
2024/03/10 07:21:40;;;;;;;21.55;11.25;;;;;;;;;;6154034;28;20191;-83
2024/03/10 07:24:45;;;;;;;19.40;12.57;;;;;;;;;;6127690;28;20107;-83
2024/03/10 07:27:53;;;;;;;19.00;12.30;;;;;;;;;;6122802;28;20083;-83
2024/03/10 07:30:56;;;;;;;17.88;11.02;;;;;;;;;;6110854;28;20049;-83
2024/03/10 07:33:59;;;;;;;19.42;12.15;;;;;;;;;;6123300;28;20051;-83
2024/03/10 07:37:01;;;;;;;19.13;12.95;;;;;;;;;;6126642;29;21016;-84
2024/03/10 07:40:07;;;;;;;17.08;11.77;;;;;;;;;;6123239;29;20051;-83
2024/03/10 07:43:09;;;;;;;19.50;11.18;;;;;;;;;;6110249;28;20063;-83
2024/03/10 07:46:15;;;;;;;26.75;13.82;;;;;;;;;;6120496;29;20473;-83
2024/03/10 07:49:18;;;;;;;19.85;12.30;;;;;;;;;;6123889;28;20051;-84
2024/03/10 07:52:22;;;;;;;17.02;9.18;;;;;;;;;;6140029;28;20047;-83
2024/03/10 07:55:24;;;;;;;28.08;16.80;;;;;;;;;;6121460;29;20105;-83
2024/03/10 07:58:27;;;;;;;24.25;13.15;;;;;;;;;;6140216;28;20175;-83
2024/03/10 08:01:31;;;;;;;21.02;12.23;;;;;;;;;;6140116;28;20081;-83
2024/03/10 08:04:33;;;;;;;19.60;10.13;;;;;;;;;;6119234;28;20738;-84
2024/03/10 08:07:36;;;;;;;23.40;12.00;;;;;;;;;;6120933;29;20098;-84
2024/03/10 08:10:39;;;;;;;19.25;11.13;;;;;;;;;;6138000;28;20043;-83
2024/03/10 08:13:44;;;;;;;17.67;10.90;;;;;;;;;;6104914;28;20054;-84
2024/03/10 08:16:48;;;;;;;20.75;11.88;;;;;;;;;;6120841;29;20101;-82
2024/03/10 08:19:52;;;;;;;20.33;11.57;;;;;;;;;;6126450;28;20311;-83
2024/03/10 08:22:56;;;;;;;20.23;10.80;;;;;;;;;;6162523;28;20054;-84
2024/03/10 08:26:00;;;;;;;19.20;11.38;;;;;;;;;;6180285;28;20038;-83
2024/03/10 08:29:02;;;;;;;20.42;10.13;;;;;;;;;;6129992;28;20178;-83
2024/03/10 08:32:06;;;;;;;23.65;12.43;;;;;;;;;;6177999;28;20054;-83
2024/03/10 08:35:09;;;;;;;18.35;10.40;;;;;;;;;;6181939;28;20218;-83
2024/03/10 08:38:21;;;;;;;18.40;11.07;;;;;;;;;;6159221;28;20801;-84
2024/03/10 08:41:24;;;;;;;15.45;9.27;;;;;;;;;;6158392;28;20070;-83
2024/03/10 08:44:26;;;;;;;19.92;9.27;;;;;;;;;;6161170;28;20039;-82
2024/03/10 08:47:28;;;;;;;16.52;8.50;;;;;;;;;;6131902;28;20653;-84
2024/03/10 08:50:31;;;;;;;20.77;12.50;;;;;;;;;;6174636;28;20057;-83
2024/03/10 08:53:33;;;;;;;19.08;9.88;;;;;;;;;;6162577;28;20054;-84
2024/03/10 08:56:39;;;;;;;23.25;12.70;;;;;;;;;;6166137;28;20050;-83
2024/03/10 08:59:42;;;;;;;16.13;10.10;;;;;;;;;;6145557;28;20061;-83
2024/03/10 09:02:44;;;;;;;17.08;9.55;;;;;;;;;;6175132;28;20090;-84
2024/03/10 09:05:48;;;;;;;17.20;9.73;;;;;;;;;;6170939;28;20050;-84
2024/03/10 09:08:51;;;;;;;20.73;13.80;;;;;;;;;;6167899;28;20057;-84
2024/03/10 09:11:55;;;;;;;18.17;9.73;;;;;;;;;;6157234;28;20054;-84
2024/03/10 09:14:58;;;;;;;14.48;8.35;;;;;;;;;;6159825;28;20799;-83
2024/03/10 09:18:00;;;;;;;15.57;8.98;;;;;;;;;;6151396;28;20051;-85
2024/03/10 09:21:03;;;;;;;16.58;10.02;;;;;;;;;;6144554;28;20214;-84
2024/03/10 09:24:06;;;;;;;14.27;9.75;;;;;;;;;;6161341;28;20066;-84
2024/03/10 09:27:10;;;;;;;12.10;7.47;;;;;;;;;;6184083;28;20789;-84
2024/03/10 09:30:13;;;;;;;15.52;9.10;;;;;;;;;;6149569;28;20042;-84
2024/03/10 09:33:17;;;;;;;29.38;9.82;;;;;;;;;;6173225;28;20050;-85
2024/03/10 09:36:24;;;;;;;13.55;7.35;;;;;;;;;;6163224;28;20100;-85
2024/03/10 09:39:27;;;;;;;14.48;7.25;;;;;;;;;;6162558;28;20587;-85
2024/03/10 09:42:30;;;;;;;12.90;6.78;;;;;;;;;;6165790;28;20448;-84
2024/03/10 09:45:40;;;;;;;10.43;6.38;;;;;;;;;;6161747;28;20622;-83
2024/03/10 09:48:46;;;;;;;11.43;7.47;;;;;;;;;;6170546;28;20780;-84
2024/03/10 09:51:49;;;;;;;11.18;6.88;;;;;;;;;;6168743;28;20362;-83
2024/03/10 09:54:51;;;;;;;12.23;8.10;;;;;;;;;;6153146;28;20046;-83
2024/03/10 09:57:54;;;;;;;12.55;8.73;;;;;;;;;;6167253;28;20130;-85
2024/03/10 10:00:58;;;;;;;11.48;8.63;;;;;;;;;;6168978;28;20066;-86
2024/03/10 10:04:03;;;;;;;13.77;7.55;;;;;;;;;;6152937;28;20089;-83
2024/03/10 10:07:08;;;;;;;13.82;7.82;;;;;;;;;;6153696;28;20039;-85
2024/03/10 10:10:10;;;;;;;;;;;;;;;;;;6155686;28;20055;-85
2024/03/10 10:13:22;;;;;;;12.32;7.47;;;;;;;;;;6174538;28;20035;-85
2024/03/10 10:16:25;;;;;;;10.15;6.15;;;;;;;;;;6151978;28;20743;-85
2024/03/10 10:19:43;;;;;;;11.50;6.50;;;;;;;;;;6168246;28;20233;-86
2024/03/10 10:22:45;;;;;;;10.70;6.97;;;;;;;;;;6159529;28;20050;-86
2024/03/10 10:26:12;;;;;;;10.90;6.53;;;;;;;;;;6178997;28;20053;-86
2024/03/10 10:29:17;;;;;;;10.93;6.40;;;;;;;;;;6184995;28;20642;-86
2024/03/10 10:32:24;;;;;;;9.50;6.18;;;;;;;;;;6133844;28;20149;-85
2024/03/10 10:35:28;;;;;;;9.07;5.15;;;;;;;;;;6182902;28;20051;-86
2024/03/10 10:38:37;;;;;;;8.35;5.80;;;;;;;;;;6154287;28;20050;-84
2024/03/10 10:41:40;;;;;;;10.82;4.35;;;;;;;;;;6132920;28;20062;-85
2024/03/10 10:44:44;;;;;;;10.70;4.55;;;;;;;;;;6172670;28;20054;-85
2024/03/10 10:47:47;;;;;;;10.05;5.55;;;;;;;;;;6172168;28;20532;-90
2024/03/10 10:50:54;;;;;;;10.63;5.05;;;;;;;;;;6192037;28;20043;-84
2024/03/10 10:53:57;;;;;;;13.10;8.50;;;;;;;;;;6203913;28;20038;-83
2024/03/10 10:57:00;;;;;;;8.88;4.90;;;;;;;;;;6189915;28;20057;-83
2024/03/10 11:00:13;;;;;;;10.25;5.75;;;;;;;;;;6163188;28;20050;-84
2024/03/10 11:03:29;;;;;;;9.13;4.88;;;;;;;;;;6135115;28;20062;-84
2024/03/10 11:06:33;;;;;;;7.75;4.78;;;;;;;;;;6157109;28;20043;-86
2024/03/10 11:09:36;;;;;;;9.38;5.00;;;;;;;;;;6164465;28;20525;-83
2024/03/10 11:12:38;;;;;;;12.68;5.43;;;;;;;;;;6179729;28;20142;-84
2024/03/10 11:15:42;;;;;;;9.02;5.65;;;;;;;;;;6164090;28;20935;-84
2024/03/10 11:18:44;;;;;;;9.20;7.05;;;;;;;;;;6160529;28;20043;-84
2024/03/10 11:21:49;;;;;;;7.80;4.35;;;;;;;;;;6186582;28;20144;-83
2024/03/10 11:25:23;;;;;;;8.65;4.88;;;;;;;;;;6156685;28;20054;-83
2024/03/10 11:28:46;;;;;;;9.55;5.07;;;;;;;;;;6177322;28;20181;-84
2024/03/10 11:32:00;;;;;;;10.45;6.07;;;;;;;;;;6175874;28;20046;-82
2024/03/10 11:35:41;;;;;;;12.80;6.30;;;;;;;;;;6186837;28;20599;-82
2024/03/10 11:38:44;;;;;;;9.32;5.22;;;;;;;;;;6173284;28;20050;-83
2024/03/10 11:41:47;;;;;;;9.60;4.68;;;;;;;;;;6191586;28;20042;-83
2024/03/10 11:44:50;;;;;;;10.77;5.55;;;;;;;;;;6133580;28;20544;-84
2024/03/10 11:47:54;;;;;;;8.95;4.75;;;;;;;;;;6155040;28;20057;-82
2024/03/10 11:50:57;;;;;;;7.40;4.65;;;;;;;;;;6167912;28;20051;-83
2024/03/10 11:54:03;;;;;;;12.63;4.50;;;;;;;;;;6162091;28;20058;-83
2024/03/10 11:57:07;;;;;;;8.90;5.63;;;;;;;;;;6182482;28;20046;-82
2024/03/10 12:00:15;;;;;;;8.20;4.82;;;;;;;;;;6188869;28;20038;-82
2024/03/10 12:03:20;;;;;;;9.43;5.30;;;;;;;;;;6170336;28;20129;-82
2024/03/10 12:06:41;;;;;;;7.90;4.25;;;;;;;;;;6156871;28;20047;-81
2024/03/10 12:09:44;;;;;;;9.70;4.15;;;;;;;;;;6165536;28;20047;-84
2024/03/10 12:12:50;;;;;;;7.63;4.55;;;;;;;;;;6151168;28;20135;-82
2024/03/10 12:15:55;;;;;;;6.93;4.35;;;;;;;;;;6165259;28;20050;-83
2024/03/10 12:18:58;;;;;;;8.98;3.78;;;;;;;;;;6163962;28;20125;-83
2024/03/10 12:22:01;;;;;;;10.93;3.83;;;;;;;;;;6166874;28;20055;-83
2024/03/10 12:25:09;;;;;;;7.95;3.80;;;;;;;;;;6174286;28;20890;-83
2024/03/10 12:28:13;;;;;;;5.88;2.97;;;;;;;;;;6152628;28;20047;-82
2024/03/10 12:31:19;;;;;;;6.18;3.50;;;;;;;;;;6158764;28;20564;-83
2024/03/10 12:34:22;;;;;;;7.55;3.20;;;;;;;;;;6163997;28;20047;-83
2024/03/10 12:37:24;;;;;;;6.05;3.50;;;;;;;;;;6143118;28;20043;-84
2024/03/10 12:40:26;;;;;;;7.53;3.67;;;;;;;;;;6160198;28;20038;-84
2024/03/10 12:43:31;;;;;;;10.20;3.78;;;;;;;;;;6161978;28;20051;-84
2024/03/10 12:46:33;;;;;;;9.75;4.28;;;;;;;;;;6172609;28;20034;-82
2024/03/10 12:49:38;;;;;;;10.90;6.15;;;;;;;;;;6172040;28;20794;-83
2024/03/10 12:52:42;;;;;;;6.47;4.38;;;;;;;;;;6172452;28;20167;-82
2024/03/10 12:55:46;;;;;;;6.22;3.42;;;;;;;;;;6158198;28;20472;-83
2024/03/10 12:58:48;;;;;;;7.70;3.33;;;;;;;;;;6146992;28;20069;-83
2024/03/10 13:01:50;;;;;;;5.68;3.15;;;;;;;;;;6174569;28;20120;-83
2024/03/10 13:04:52;;;;;;;6.78;3.22;;;;;;;;;;6142781;28;20233;-83
2024/03/10 13:07:57;;;;;;;6.97;4.45;;;;;;;;;;6158791;28;20077;-83
2024/03/10 13:11:01;;;;;;;;;;;;;;;;;;6179572;28;20046;-83
2024/03/10 13:14:05;;;;;;;5.68;3.30;;;;;;;;;;6175622;28;19926;-82
2024/03/10 13:17:08;;;;;;;7.03;3.58;;;;;;;;;;6151623;28;20043;-84
2024/03/10 13:20:20;;;;;;;8.27;4.10;;;;;;;;;;6156371;28;20421;-86
2024/03/10 13:23:23;;;;;;;5.53;3.17;;;;;;;;;;6158808;28;20043;-85
2024/03/10 13:26:26;;;;;;;6.93;3.38;;;;;;;;;;6159803;28;20065;-85
2024/03/10 13:29:28;;;;;;;10.25;3.88;;;;;;;;;;6127180;28;20051;-85
2024/03/10 13:32:30;;;;;;;7.15;3.00;;;;;;;;;;6163599;28;20104;-86
2024/03/10 13:35:33;;;;;;;8.45;3.38;;;;;;;;;;6150283;28;20051;-85
2024/03/10 13:38:36;;;;;;;7.65;3.85;;;;;;;;;;6142454;28;20100;-85
2024/03/10 13:41:39;;;;;;;7.55;3.15;;;;;;;;;;6175234;28;20050;-86
2024/03/10 13:44:41;;;;;;;6.70;3.58;;;;;;;;;;6170577;28;20062;-85
2024/03/10 13:47:44;;;;;;;7.97;3.40;;;;;;;;;;6166195;28;20039;-85
2024/03/10 13:50:48;;;;;;;6.55;3.30;;;;;;;;;;6140526;28;20051;-86
2024/03/10 13:53:51;;;;;;;9.38;3.65;;;;;;;;;;6185442;28;20444;-86
2024/03/10 13:56:54;;;;;;;11.50;3.30;;;;;;;;;;6158754;28;20047;-86
2024/03/10 13:59:56;;;;;;;8.13;3.25;;;;;;;;;;6182011;28;20058;-85
2024/03/10 14:02:59;;;;;;;9.68;3.08;;;;;;;;;;6178815;28;20054;-86
2024/03/10 14:06:05;;;;;;;6.60;2.83;;;;;;;;;;6165842;28;20035;-85
2024/03/10 14:09:11;;;;;;;7.25;2.85;;;;;;;;;;6198224;28;20522;-85
2024/03/10 14:12:13;;;;;;;6.55;3.38;;;;;;;;;;6196968;28;20051;-83
2024/03/10 14:15:20;;;;;;;8.02;3.83;;;;;;;;;;6181346;28;20114;-86
2024/03/10 14:18:24;;;;;;;5.85;2.50;;;;;;;;;;6168057;28;20075;-85
2024/03/10 14:21:26;;;;;;;7.32;2.88;;;;;;;;;;6186178;28;20050;-85
2024/03/10 14:24:29;;;;;;;5.85;3.00;;;;;;;;;;6183103;28;20070;-84
2024/03/10 14:27:33;;;;;;;6.05;2.90;;;;;;;;;;6188559;28;20051;-85
2024/03/10 14:30:41;;;;;;;9.82;3.65;;;;;;;;;;6205800;28;20051;-87
2024/03/10 14:33:44;;;;;;;9.18;4.20;;;;;;;;;;6186201;28;20054;-86
2024/03/10 14:36:46;;;;;;;8.10;4.50;;;;;;;;;;6180601;28;20109;-85
2024/03/10 14:39:50;;;;;;;12.38;6.38;;;;;;;;;;6181978;28;20063;-87
2024/03/10 14:42:55;;;;;;;15.57;6.65;;;;;;;;;;6173023;28;20057;-87
2024/03/10 14:45:58;;;;;;;11.60;6.20;;;;;;;;;;6175410;28;20054;-87
2024/03/10 14:49:03;;;;;;;15.27;6.63;;;;;;;;;;6169823;28;20106;-88
2024/03/10 14:52:07;;;;;;;9.88;6.13;;;;;;;;;;6180427;28;20141;-87
2024/03/10 14:55:12;;;;;;;10.60;4.78;;;;;;;;;;6162121;28;20050;-87
2024/03/10 14:58:14;;;;;;;;;;;;;;;;;;6180821;28;20070;-87
2024/03/10 15:01:17;;;;;;;14.10;6.60;;;;;;;;;;6184950;28;19926;-86
2024/03/10 15:04:30;;;;;;;8.70;5.13;;;;;;;;;;6177314;28;20054;-85
2024/03/10 15:07:34;;;;;;;10.02;5.38;;;;;;;;;;6191228;28;20062;-86
2024/03/10 15:10:40;;;;;;;8.23;5.03;;;;;;;;;;6178829;28;20181;-84
2024/03/10 15:13:42;;;;;;;8.80;5.50;;;;;;;;;;6175875;28;20046;-85
2024/03/10 15:16:45;;;;;;;11.27;5.93;;;;;;;;;;6187666;28;20445;-83
2024/03/10 15:19:49;;;;;;;15.27;7.82;;;;;;;;;;6158237;28;20131;-83
2024/03/10 15:22:54;;;;;;;12.40;6.78;;;;;;;;;;6180754;28;20061;-84
2024/03/10 15:25:59;;;;;;;10.68;6.47;;;;;;;;;;6175143;28;20051;-85
2024/03/10 15:29:09;;;;;;;11.00;6.28;;;;;;;;;;6159670;28;20057;-82
2024/03/10 15:32:24;;;;;;;14.95;8.60;;;;;;;;;;6178727;28;20083;-83
2024/03/10 15:35:31;;;;;;;16.27;11.38;;;;;;;;;;6192890;28;20083;-83
2024/03/10 15:38:33;;;;;;;12.15;7.95;;;;;;;;;;6187093;28;20170;-83
2024/03/10 15:41:39;;;;;;;13.88;7.32;;;;;;;;;;6178816;28;20074;-85
2024/03/10 15:44:43;;;;;;;12.60;8.32;;;;;;;;;;6201556;28;20057;-84
2024/03/10 15:47:56;;;;;;;13.57;9.02;;;;;;;;;;6203977;28;20066;-83
2024/03/10 15:51:00;;;;;;;12.77;9.18;;;;;;;;;;6168834;28;20720;-83
2024/03/10 15:54:07;;;;;;;13.85;8.35;;;;;;;;;;6176431;28;20257;-82
2024/03/10 15:57:13;;;;;;;13.15;8.55;;;;;;;;;;6159866;28;20562;-83
2024/03/10 16:00:20;;;;;;;15.05;9.52;;;;;;;;;;6167177;28;20042;-83
2024/03/10 16:03:34;;;;;;;15.98;9.68;;;;;;;;;;6134758;28;20600;-81
2024/03/10 16:06:37;;;;;;;19.17;7.95;;;;;;;;;;6146518;28;20047;-84
2024/03/10 16:09:40;;;;;;;13.75;8.63;;;;;;;;;;6161794;28;20046;-82
2024/03/10 16:12:43;;;;;;;13.48;8.68;;;;;;;;;;6166364;28;20055;-83
2024/03/10 16:15:45;;;;;;;15.88;9.40;;;;;;;;;;6167943;28;20066;-82
2024/03/10 16:18:48;;;;;;;17.15;8.80;;;;;;;;;;6146466;28;20046;-82
2024/03/10 16:21:54;;;;;;;;;;;;;;;;;;6178608;28;20433;-83
2024/03/10 16:24:56;;;;;;;12.45;8.50;;;;;;;;;;6176305;28;20039;-83
2024/03/10 16:27:59;;;;;;;14.25;8.43;;;;;;;;;;6171847;28;20071;-82
2024/03/10 16:31:02;;;;;;;14.85;9.10;;;;;;;;;;6125211;28;20046;-83
2024/03/10 16:34:05;;;;;;;15.50;9.00;;;;;;;;;;6178611;28;20056;-83
2024/03/10 16:37:09;;;;;;;20.10;10.13;;;;;;;;;;6167621;28;20055;-83
2024/03/10 16:40:13;;;;;;;18.33;10.52;;;;;;;;;;6167873;28;20146;-82
2024/03/10 16:43:16;;;;;;;18.05;9.85;;;;;;;;;;6168143;28;20054;-82
2024/03/10 16:46:23;;;;;;;18.85;10.32;;;;;;;;;;6188765;28;20592;-84
2024/03/10 16:49:27;;;;;;;18.40;11.32;;;;;;;;;;6168769;28;20108;-82
2024/03/10 16:52:31;;;;;;;16.70;11.55;;;;;;;;;;6139722;28;20046;-81
2024/03/10 16:55:33;;;;;;;17.83;10.05;;;;;;;;;;6165758;28;20432;-81
2024/03/10 16:58:38;;;;;;;15.25;9.00;;;;;;;;;;6191087;28;20039;-80
2024/03/10 17:01:42;;;;;;;15.98;9.70;;;;;;;;;;6186206;28;20047;-82
2024/03/10 17:04:45;;;;;;;18.95;10.55;;;;;;;;;;6173589;28;20066;-80
2024/03/10 17:07:50;;;;;;;18.13;10.23;;;;;;;;;;6168822;28;20069;-82
2024/03/10 17:10:52;;;;;;;18.10;10.70;;;;;;;;;;6169006;28;20070;-82
2024/03/10 17:13:55;;;;;;;17.02;9.07;;;;;;;;;;6172256;28;20058;-82
2024/03/10 17:16:57;;;;;;;18.35;9.88;;;;;;;;;;6170918;28;20129;-81
2024/03/10 17:20:03;;;;;;;20.88;10.93;;;;;;;;;;6170121;28;20538;-82
2024/03/10 17:23:07;;;;;;;17.50;10.57;;;;;;;;;;6172613;28;20066;-82
2024/03/10 17:26:11;;;;;;;19.08;10.73;;;;;;;;;;6185992;28;20054;-82
2024/03/10 17:29:14;;;;;;;20.42;11.52;;;;;;;;;;6156412;28;20043;-82
2024/03/10 17:32:17;;;;;;;25.08;13.10;;;;;;;;;;6161683;28;20133;-81
2024/03/10 17:35:20;;;;;;;17.85;11.73;;;;;;;;;;6163207;28;20229;-80
2024/03/10 17:38:23;;;;;;;20.55;12.30;;;;;;;;;;6168807;28;20174;-82
2024/03/10 17:41:29;;;;;;;23.40;13.10;;;;;;;;;;6168397;28;20563;-82
2024/03/10 17:44:34;;;;;;;21.83;14.50;;;;;;;;;;6166454;28;20046;-82
2024/03/10 17:47:37;;;;;;;23.52;14.85;;;;;;;;;;6166911;28;20041;-82
2024/03/10 17:50:41;;;;;;;30.70;17.83;;;;;;;;;;6184093;28;20058;-82
2024/03/10 17:53:45;;;;;;;25.27;15.35;;;;;;;;;;6170298;28;20050;-83
2024/03/10 17:56:48;;;;;;;22.65;13.60;;;;;;;;;;6166588;28;20050;-83
2024/03/10 17:59:52;;;;;;;21.90;12.65;;;;;;;;;;6190491;28;20066;-83
2024/03/10 18:02:56;;;;;;;23.52;13.35;;;;;;;;;;6166964;28;20047;-82
2024/03/10 18:06:01;;;;;;;23.05;12.70;;;;;;;;;;6161251;28;20101;-83
2024/03/10 18:09:08;;;;;;;27.27;13.40;;;;;;;;;;6152730;28;20047;-82
2024/03/10 18:12:15;;;;;;;25.13;14.13;;;;;;;;;;6155232;28;20055;-82
2024/03/10 18:15:20;;;;;;;23.02;12.95;;;;;;;;;;6162391;28;20061;-83
2024/03/10 18:18:23;;;;;;;23.80;13.15;;;;;;;;;;6162862;28;20552;-83
2024/03/10 18:21:25;;;;;;;24.75;12.85;;;;;;;;;;6165622;28;20055;-83
2024/03/10 18:24:29;;;;;;;25.45;14.48;;;;;;;;;;6165817;28;20054;-83
2024/03/10 18:27:32;;;;;;;24.55;12.75;;;;;;;;;;6170581;28;20043;-83
2024/03/10 18:30:39;;;;;;;23.60;13.65;;;;;;;;;;6145588;28;20062;-82